sensor_id;sensor_type;location;lat;lon;timestamp;P1;durP1;ratioP1;P2;durP2;ratioP2
74342;SDS011;62767;50.300;8.070;2024-03-17T00:02:20;1.38;;;0.80;;
74342;SDS011;62767;50.300;8.070;2024-03-17T00:04:45;1.55;;;1.00;;
74342;SDS011;62767;50.300;8.070;2024-03-17T00:07:11;1.80;;;0.80;;
74342;SDS011;62767;50.300;8.070;2024-03-17T00:09:38;1.63;;;0.90;;
74342;SDS011;62767;50.300;8.070;2024-03-17T00:12:04;1.48;;;0.80;;
74342;SDS011;62767;50.300;8.070;2024-03-17T00:14:30;1.98;;;0.80;;
74342;SDS011;62767;50.300;8.070;2024-03-17T00:16:55;2.60;;;0.80;;
74342;SDS011;62767;50.300;8.070;2024-03-17T00:19:21;0.70;;;0.70;;
74342;SDS011;62767;50.300;8.070;2024-03-17T00:21:49;1.30;;;0.70;;
74342;SDS011;62767;50.300;8.070;2024-03-17T00:24:18;2.10;;;0.90;;
74342;SDS011;62767;50.300;8.070;2024-03-17T00:29:11;1.90;;;0.93;;
74342;SDS011;62767;50.300;8.070;2024-03-17T00:31:36;1.45;;;0.70;;
74342;SDS011;62767;50.300;8.070;2024-03-17T00:34:02;1.58;;;0.80;;
74342;SDS011;62767;50.300;8.070;2024-03-17T00:36:29;2.15;;;1.00;;
74342;SDS011;62767;50.300;8.070;2024-03-17T00:38:55;1.17;;;0.70;;
74342;SDS011;62767;50.300;8.070;2024-03-17T00:41:21;0.73;;;0.60;;
74342;SDS011;62767;50.300;8.070;2024-03-17T00:43:47;1.20;;;0.75;;
74342;SDS011;62767;50.300;8.070;2024-03-17T00:46:12;1.55;;;0.80;;
74342;SDS011;62767;50.300;8.070;2024-03-17T00:48:38;1.23;;;0.90;;
74342;SDS011;62767;50.300;8.070;2024-03-17T00:51:03;1.30;;;0.80;;
74342;SDS011;62767;50.300;8.070;2024-03-17T00:53:29;1.42;;;0.82;;
74342;SDS011;62767;50.300;8.070;2024-03-17T00:55:55;1.92;;;0.82;;
74342;SDS011;62767;50.300;8.070;2024-03-17T00:58:25;1.88;;;0.80;;
74342;SDS011;62767;50.300;8.070;2024-03-17T01:00:50;1.20;;;0.70;;
74342;SDS011;62767;50.300;8.070;2024-03-17T01:03:16;0.98;;;0.60;;
74342;SDS011;62767;50.300;8.070;2024-03-17T01:05:42;1.17;;;0.70;;
74342;SDS011;62767;50.300;8.070;2024-03-17T01:08:10;0.80;;;0.70;;
74342;SDS011;62767;50.300;8.070;2024-03-17T01:10:40;0.70;;;0.52;;
74342;SDS011;62767;50.300;8.070;2024-03-17T01:13:06;0.77;;;0.60;;
74342;SDS011;62767;50.300;8.070;2024-03-17T01:15:33;1.80;;;1.05;;
74342;SDS011;62767;50.300;8.070;2024-03-17T01:17:59;1.95;;;0.80;;
74342;SDS011;62767;50.300;8.070;2024-03-17T01:20:25;0.88;;;0.70;;
74342;SDS011;62767;50.300;8.070;2024-03-17T01:22:51;1.73;;;0.77;;
74342;SDS011;62767;50.300;8.070;2024-03-17T01:25:16;2.15;;;0.75;;
74342;SDS011;62767;50.300;8.070;2024-03-17T01:27:42;1.92;;;0.75;;
74342;SDS011;62767;50.300;8.070;2024-03-17T01:30:09;0.98;;;0.73;;
74342;SDS011;62767;50.300;8.070;2024-03-17T01:32:38;0.85;;;0.70;;
74342;SDS011;62767;50.300;8.070;2024-03-17T01:35:03;1.52;;;0.90;;
74342;SDS011;62767;50.300;8.070;2024-03-17T01:37:31;0.90;;;0.60;;
74342;SDS011;62767;50.300;8.070;2024-03-17T01:39:57;1.20;;;0.70;;
74342;SDS011;62767;50.300;8.070;2024-03-17T01:44:49;1.45;;;0.70;;
74342;SDS011;62767;50.300;8.070;2024-03-17T01:47:16;1.23;;;0.68;;
74342;SDS011;62767;50.300;8.070;2024-03-17T01:49:44;1.25;;;0.70;;
74342;SDS011;62767;50.300;8.070;2024-03-17T01:52:14;1.55;;;0.93;;
74342;SDS011;62767;50.300;8.070;2024-03-17T01:54:41;1.52;;;0.85;;
74342;SDS011;62767;50.300;8.070;2024-03-17T01:57:08;0.88;;;0.50;;
74342;SDS011;62767;50.300;8.070;2024-03-17T01:59:35;0.90;;;0.70;;
74342;SDS011;62767;50.300;8.070;2024-03-17T02:02:00;1.60;;;0.80;;
74342;SDS011;62767;50.300;8.070;2024-03-17T02:06:52;0.68;;;0.68;;
74342;SDS011;62767;50.300;8.070;2024-03-17T02:09:18;1.05;;;0.70;;
74342;SDS011;62767;50.300;8.070;2024-03-17T02:11:47;1.00;;;0.73;;
74342;SDS011;62767;50.300;8.070;2024-03-17T02:14:13;1.42;;;0.82;;
74342;SDS011;62767;50.300;8.070;2024-03-17T02:16:40;0.65;;;0.65;;
74342;SDS011;62767;50.300;8.070;2024-03-17T02:19:05;1.38;;;0.70;;
74342;SDS011;62767;50.300;8.070;2024-03-17T02:21:31;1.48;;;0.70;;
74342;SDS011;62767;50.300;8.070;2024-03-17T02:23:56;1.15;;;0.70;;
74342;SDS011;62767;50.300;8.070;2024-03-17T02:26:23;1.13;;;0.75;;
74342;SDS011;62767;50.300;8.070;2024-03-17T02:28:50;1.02;;;0.88;;
74342;SDS011;62767;50.300;8.070;2024-03-17T02:31:16;0.95;;;0.68;;
74342;SDS011;62767;50.300;8.070;2024-03-17T02:33:42;1.00;;;0.50;;
74342;SDS011;62767;50.300;8.070;2024-03-17T02:36:09;0.70;;;0.60;;
74342;SDS011;62767;50.300;8.070;2024-03-17T02:38:37;0.90;;;0.60;;
74342;SDS011;62767;50.300;8.070;2024-03-17T02:41:22;0.68;;;0.63;;
74342;SDS011;62767;50.300;8.070;2024-03-17T02:43:47;0.82;;;0.60;;
74342;SDS011;62767;50.300;8.070;2024-03-17T02:46:13;1.02;;;0.70;;
74342;SDS011;62767;50.300;8.070;2024-03-17T02:48:42;0.80;;;0.60;;
74342;SDS011;62767;50.300;8.070;2024-03-17T02:51:12;0.95;;;0.60;;
74342;SDS011;62767;50.300;8.070;2024-03-17T02:53:41;0.70;;;0.70;;
74342;SDS011;62767;50.300;8.070;2024-03-17T02:56:07;0.80;;;0.70;;
74342;SDS011;62767;50.300;8.070;2024-03-17T02:58:37;0.90;;;0.68;;
74342;SDS011;62767;50.300;8.070;2024-03-17T03:01:04;1.02;;;0.60;;
74342;SDS011;62767;50.300;8.070;2024-03-17T03:03:33;1.45;;;0.80;;
74342;SDS011;62767;50.300;8.070;2024-03-17T03:05:58;1.48;;;0.82;;
74342;SDS011;62767;50.300;8.070;2024-03-17T03:08:32;0.70;;;0.50;;
74342;SDS011;62767;50.300;8.070;2024-03-17T03:10:59;0.65;;;0.43;;
74342;SDS011;62767;50.300;8.070;2024-03-17T03:13:24;0.50;;;0.50;;
74342;SDS011;62767;50.300;8.070;2024-03-17T03:15:50;1.50;;;0.70;;
74342;SDS011;62767;50.300;8.070;2024-03-17T03:18:16;0.80;;;0.63;;
74342;SDS011;62767;50.300;8.070;2024-03-17T03:20:42;1.05;;;0.70;;
74342;SDS011;62767;50.300;8.070;2024-03-17T03:23:08;0.80;;;0.60;;
74342;SDS011;62767;50.300;8.070;2024-03-17T03:25:34;1.05;;;0.70;;
74342;SDS011;62767;50.300;8.070;2024-03-17T03:28:00;2.55;;;1.00;;
74342;SDS011;62767;50.300;8.070;2024-03-17T03:30:25;0.75;;;0.57;;
74342;SDS011;62767;50.300;8.070;2024-03-17T03:32:52;1.38;;;0.60;;
74342;SDS011;62767;50.300;8.070;2024-03-17T03:35:18;0.70;;;0.60;;
74342;SDS011;62767;50.300;8.070;2024-03-17T03:37:44;0.60;;;0.43;;
74342;SDS011;62767;50.300;8.070;2024-03-17T03:40:10;0.57;;;0.57;;
74342;SDS011;62767;50.300;8.070;2024-03-17T03:42:47;0.95;;;0.70;;
74342;SDS011;62767;50.300;8.070;2024-03-17T03:45:13;0.55;;;0.50;;
74342;SDS011;62767;50.300;8.070;2024-03-17T03:47:42;1.17;;;0.65;;
74342;SDS011;62767;50.300;8.070;2024-03-17T03:50:09;0.40;;;0.40;;
74342;SDS011;62767;50.300;8.070;2024-03-17T03:52:38;0.63;;;0.60;;
74342;SDS011;62767;50.300;8.070;2024-03-17T03:55:06;0.70;;;0.60;;
74342;SDS011;62767;50.300;8.070;2024-03-17T03:57:36;1.02;;;0.60;;
74342;SDS011;62767;50.300;8.070;2024-03-17T04:00:05;0.65;;;0.52;;
74342;SDS011;62767;50.300;8.070;2024-03-17T04:02:38;0.93;;;0.50;;
74342;SDS011;62767;50.300;8.070;2024-03-17T04:05:04;1.13;;;0.70;;
74342;SDS011;62767;50.300;8.070;2024-03-17T04:07:30;0.98;;;0.60;;
74342;SDS011;62767;50.300;8.070;2024-03-17T04:09:55;0.75;;;0.60;;
74342;SDS011;62767;50.300;8.070;2024-03-17T04:12:22;1.45;;;0.80;;
74342;SDS011;62767;50.300;8.070;2024-03-17T04:14:49;2.28;;;0.65;;
74342;SDS011;62767;50.300;8.070;2024-03-17T04:17:21;1.08;;;0.50;;
74342;SDS011;62767;50.300;8.070;2024-03-17T04:19:48;0.93;;;0.80;;
74342;SDS011;62767;50.300;8.070;2024-03-17T04:22:15;1.20;;;0.50;;
74342;SDS011;62767;50.300;8.070;2024-03-17T04:24:42;0.50;;;0.50;;
74342;SDS011;62767;50.300;8.070;2024-03-17T04:27:08;0.73;;;0.60;;
74342;SDS011;62767;50.300;8.070;2024-03-17T04:29:34;1.23;;;0.60;;
74342;SDS011;62767;50.300;8.070;2024-03-17T04:32:00;0.80;;;0.65;;
74342;SDS011;62767;50.300;8.070;2024-03-17T04:34:26;0.85;;;0.50;;
74342;SDS011;62767;50.300;8.070;2024-03-17T04:36:52;0.55;;;0.50;;
74342;SDS011;62767;50.300;8.070;2024-03-17T04:39:19;1.13;;;0.50;;
74342;SDS011;62767;50.300;8.070;2024-03-17T04:41:45;0.60;;;0.60;;
74342;SDS011;62767;50.300;8.070;2024-03-17T04:44:10;0.73;;;0.50;;
74342;SDS011;62767;50.300;8.070;2024-03-17T04:46:36;0.95;;;0.50;;
74342;SDS011;62767;50.300;8.070;2024-03-17T04:49:01;1.00;;;0.70;;
74342;SDS011;62767;50.300;8.070;2024-03-17T04:51:29;0.70;;;0.60;;
74342;SDS011;62767;50.300;8.070;2024-03-17T04:53:55;0.35;;;0.35;;
74342;SDS011;62767;50.300;8.070;2024-03-17T04:56:20;0.50;;;0.50;;
74342;SDS011;62767;50.300;8.070;2024-03-17T04:58:46;0.63;;;0.40;;
74342;SDS011;62767;50.300;8.070;2024-03-17T05:01:11;1.10;;;0.55;;
74342;SDS011;62767;50.300;8.070;2024-03-17T05:03:38;0.50;;;0.50;;
74342;SDS011;62767;50.300;8.070;2024-03-17T05:06:04;0.98;;;0.68;;
74342;SDS011;62767;50.300;8.070;2024-03-17T05:08:30;0.70;;;0.47;;
74342;SDS011;62767;50.300;8.070;2024-03-17T05:11:00;0.80;;;0.50;;
74342;SDS011;62767;50.300;8.070;2024-03-17T05:13:30;0.70;;;0.60;;
74342;SDS011;62767;50.300;8.070;2024-03-17T05:15:56;0.88;;;0.70;;
74342;SDS011;62767;50.300;8.070;2024-03-17T05:18:22;0.60;;;0.60;;
74342;SDS011;62767;50.300;8.070;2024-03-17T05:21:01;0.47;;;0.45;;
74342;SDS011;62767;50.300;8.070;2024-03-17T05:23:31;0.77;;;0.60;;
74342;SDS011;62767;50.300;8.070;2024-03-17T05:25:59;1.15;;;0.60;;
74342;SDS011;62767;50.300;8.070;2024-03-17T05:28:26;0.45;;;0.40;;
74342;SDS011;62767;50.300;8.070;2024-03-17T05:30:53;0.43;;;0.43;;
74342;SDS011;62767;50.300;8.070;2024-03-17T05:33:19;1.02;;;0.70;;
74342;SDS011;62767;50.300;8.070;2024-03-17T05:38:19;0.50;;;0.50;;
74342;SDS011;62767;50.300;8.070;2024-03-17T05:41:02;1.00;;;0.60;;
74342;SDS011;62767;50.300;8.070;2024-03-17T05:43:29;0.80;;;0.52;;
74342;SDS011;62767;50.300;8.070;2024-03-17T05:45:58;0.57;;;0.57;;
74342;SDS011;62767;50.300;8.070;2024-03-17T05:48:28;0.95;;;0.70;;
74342;SDS011;62767;50.300;8.070;2024-03-17T05:50:54;0.47;;;0.40;;
74342;SDS011;62767;50.300;8.070;2024-03-17T05:53:20;0.50;;;0.45;;
74342;SDS011;62767;50.300;8.070;2024-03-17T05:55:49;0.70;;;0.50;;
74342;SDS011;62767;50.300;8.070;2024-03-17T05:58:15;0.82;;;0.60;;
74342;SDS011;62767;50.300;8.070;2024-03-17T06:00:40;0.90;;;0.50;;
74342;SDS011;62767;50.300;8.070;2024-03-17T06:03:06;1.88;;;0.43;;
74342;SDS011;62767;50.300;8.070;2024-03-17T06:05:33;0.50;;;0.50;;
74342;SDS011;62767;50.300;8.070;2024-03-17T06:08:02;1.13;;;0.60;;
74342;SDS011;62767;50.300;8.070;2024-03-17T06:10:30;0.50;;;0.40;;
74342;SDS011;62767;50.300;8.070;2024-03-17T06:13:00;0.40;;;0.40;;
74342;SDS011;62767;50.300;8.070;2024-03-17T06:15:26;0.60;;;0.60;;
74342;SDS011;62767;50.300;8.070;2024-03-17T06:17:52;1.00;;;0.60;;
74342;SDS011;62767;50.300;8.070;2024-03-17T06:20:22;0.68;;;0.57;;
74342;SDS011;62767;50.300;8.070;2024-03-17T06:22:49;0.70;;;0.60;;
74342;SDS011;62767;50.300;8.070;2024-03-17T06:25:15;0.85;;;0.50;;
74342;SDS011;62767;50.300;8.070;2024-03-17T06:27:41;0.75;;;0.60;;
74342;SDS011;62767;50.300;8.070;2024-03-17T06:30:10;0.32;;;0.32;;
74342;SDS011;62767;50.300;8.070;2024-03-17T06:32:42;0.77;;;0.50;;
74342;SDS011;62767;50.300;8.070;2024-03-17T06:35:11;0.73;;;0.55;;
74342;SDS011;62767;50.300;8.070;2024-03-17T06:37:37;0.88;;;0.70;;
74342;SDS011;62767;50.300;8.070;2024-03-17T06:40:03;0.70;;;0.40;;
74342;SDS011;62767;50.300;8.070;2024-03-17T06:42:30;0.70;;;0.52;;
74342;SDS011;62767;50.300;8.070;2024-03-17T06:44:56;0.70;;;0.50;;
74342;SDS011;62767;50.300;8.070;2024-03-17T06:47:22;0.52;;;0.47;;
74342;SDS011;62767;50.300;8.070;2024-03-17T06:49:48;0.75;;;0.52;;
74342;SDS011;62767;50.300;8.070;2024-03-17T06:52:13;0.63;;;0.43;;
74342;SDS011;62767;50.300;8.070;2024-03-17T06:54:39;0.82;;;0.50;;
74342;SDS011;62767;50.300;8.070;2024-03-17T06:57:05;0.65;;;0.50;;
74342;SDS011;62767;50.300;8.070;2024-03-17T06:59:32;0.70;;;0.60;;
74342;SDS011;62767;50.300;8.070;2024-03-17T07:01:58;0.40;;;0.40;;
74342;SDS011;62767;50.300;8.070;2024-03-17T07:04:24;0.47;;;0.40;;
74342;SDS011;62767;50.300;8.070;2024-03-17T07:06:49;1.00;;;0.50;;
74342;SDS011;62767;50.300;8.070;2024-03-17T07:09:15;0.50;;;0.50;;
74342;SDS011;62767;50.300;8.070;2024-03-17T07:14:08;0.73;;;0.40;;
74342;SDS011;62767;50.300;8.070;2024-03-17T07:16:34;1.25;;;0.70;;
74342;SDS011;62767;50.300;8.070;2024-03-17T07:19:01;0.70;;;0.50;;
74342;SDS011;62767;50.300;8.070;2024-03-17T07:21:27;0.68;;;0.60;;
74342;SDS011;62767;50.300;8.070;2024-03-17T07:23:52;0.77;;;0.45;;
74342;SDS011;62767;50.300;8.070;2024-03-17T07:26:18;0.50;;;0.45;;
74342;SDS011;62767;50.300;8.070;2024-03-17T07:28:43;0.60;;;0.55;;
74342;SDS011;62767;50.300;8.070;2024-03-17T07:31:10;0.60;;;0.60;;
74342;SDS011;62767;50.300;8.070;2024-03-17T07:33:35;0.68;;;0.52;;
74342;SDS011;62767;50.300;8.070;2024-03-17T07:36:01;0.40;;;0.40;;
74342;SDS011;62767;50.300;8.070;2024-03-17T07:38:28;0.43;;;0.43;;
74342;SDS011;62767;50.300;8.070;2024-03-17T07:40:58;0.60;;;0.60;;
74342;SDS011;62767;50.300;8.070;2024-03-17T07:43:25;0.50;;;0.50;;
74342;SDS011;62767;50.300;8.070;2024-03-17T07:48:30;0.73;;;0.50;;
74342;SDS011;62767;50.300;8.070;2024-03-17T07:51:00;1.40;;;0.40;;
74342;SDS011;62767;50.300;8.070;2024-03-17T07:53:33;1.13;;;0.43;;
74342;SDS011;62767;50.300;8.070;2024-03-17T07:56:03;0.63;;;0.50;;
74342;SDS011;62767;50.300;8.070;2024-03-17T07:58:29;0.52;;;0.45;;
74342;SDS011;62767;50.300;8.070;2024-03-17T08:01:02;0.60;;;0.60;;
74342;SDS011;62767;50.300;8.070;2024-03-17T08:03:29;0.88;;;0.70;;
74342;SDS011;62767;50.300;8.070;2024-03-17T08:05:56;0.45;;;0.40;;
74342;SDS011;62767;50.300;8.070;2024-03-17T08:08:22;0.25;;;0.25;;
74342;SDS011;62767;50.300;8.070;2024-03-17T08:10:48;0.93;;;0.60;;
74342;SDS011;62767;50.300;8.070;2024-03-17T08:13:14;1.13;;;0.60;;
74342;SDS011;62767;50.300;8.070;2024-03-17T08:15:43;0.80;;;0.52;;
74342;SDS011;62767;50.300;8.070;2024-03-17T08:18:13;0.77;;;0.70;;
74342;SDS011;62767;50.300;8.070;2024-03-17T08:20:39;1.38;;;0.60;;
74342;SDS011;62767;50.300;8.070;2024-03-17T08:23:05;0.90;;;0.60;;
74342;SDS011;62767;50.300;8.070;2024-03-17T08:25:32;0.45;;;0.45;;
74342;SDS011;62767;50.300;8.070;2024-03-17T08:27:58;0.50;;;0.50;;
74342;SDS011;62767;50.300;8.070;2024-03-17T08:30:25;0.82;;;0.57;;
74342;SDS011;62767;50.300;8.070;2024-03-17T08:32:50;0.50;;;0.40;;
74342;SDS011;62767;50.300;8.070;2024-03-17T08:35:16;0.50;;;0.47;;
74342;SDS011;62767;50.300;8.070;2024-03-17T08:37:41;0.70;;;0.50;;
74342;SDS011;62767;50.300;8.070;2024-03-17T08:40:07;1.48;;;0.70;;
74342;SDS011;62767;50.300;8.070;2024-03-17T08:42:33;0.65;;;0.47;;
74342;SDS011;62767;50.300;8.070;2024-03-17T08:44:58;0.38;;;0.38;;
74342;SDS011;62767;50.300;8.070;2024-03-17T08:47:24;0.70;;;0.60;;
74342;SDS011;62767;50.300;8.070;2024-03-17T08:49:50;0.95;;;0.70;;
74342;SDS011;62767;50.300;8.070;2024-03-17T08:52:16;0.85;;;0.60;;
74342;SDS011;62767;50.300;8.070;2024-03-17T08:54:45;0.55;;;0.50;;
74342;SDS011;62767;50.300;8.070;2024-03-17T08:57:12;0.45;;;0.40;;
74342;SDS011;62767;50.300;8.070;2024-03-17T08:59:38;0.57;;;0.50;;
74342;SDS011;62767;50.300;8.070;2024-03-17T09:02:03;1.00;;;0.63;;
74342;SDS011;62767;50.300;8.070;2024-03-17T09:04:29;0.55;;;0.55;;
74342;SDS011;62767;50.300;8.070;2024-03-17T09:06:56;0.47;;;0.47;;
74342;SDS011;62767;50.300;8.070;2024-03-17T09:09:24;0.40;;;0.40;;
74342;SDS011;62767;50.300;8.070;2024-03-17T09:11:50;1.02;;;0.60;;
74342;SDS011;62767;50.300;8.070;2024-03-17T09:14:16;1.17;;;0.60;;
74342;SDS011;62767;50.300;8.070;2024-03-17T09:16:41;1.13;;;0.65;;
74342;SDS011;62767;50.300;8.070;2024-03-17T09:19:07;0.60;;;0.57;;
74342;SDS011;62767;50.300;8.070;2024-03-17T09:21:34;1.45;;;0.70;;
74342;SDS011;62767;50.300;8.070;2024-03-17T09:23:59;0.82;;;0.68;;
74342;SDS011;62767;50.300;8.070;2024-03-17T09:26:25;0.80;;;0.60;;
74342;SDS011;62767;50.300;8.070;2024-03-17T09:28:51;0.80;;;0.70;;
74342;SDS011;62767;50.300;8.070;2024-03-17T09:31:16;0.50;;;0.50;;
74342;SDS011;62767;50.300;8.070;2024-03-17T09:33:41;0.95;;;0.77;;
74342;SDS011;62767;50.300;8.070;2024-03-17T09:36:08;0.70;;;0.60;;
74342;SDS011;62767;50.300;8.070;2024-03-17T09:38:36;0.52;;;0.50;;
74342;SDS011;62767;50.300;8.070;2024-03-17T09:41:03;0.85;;;0.60;;
74342;SDS011;62767;50.300;8.070;2024-03-17T09:43:32;0.47;;;0.47;;
74342;SDS011;62767;50.300;8.070;2024-03-17T09:46:01;0.40;;;0.40;;
74342;SDS011;62767;50.300;8.070;2024-03-17T09:48:28;1.00;;;0.50;;
74342;SDS011;62767;50.300;8.070;2024-03-17T09:50:54;0.90;;;0.60;;
74342;SDS011;62767;50.300;8.070;2024-03-17T09:55:49;2.83;;;1.30;;
74342;SDS011;62767;50.300;8.070;2024-03-17T09:58:15;1.85;;;1.15;;
74342;SDS011;62767;50.300;8.070;2024-03-17T10:00:45;1.27;;;0.85;;
74342;SDS011;62767;50.300;8.070;2024-03-17T10:10:29;3.03;;;1.40;;
74342;SDS011;62767;50.300;8.070;2024-03-17T10:12:54;3.28;;;1.50;;
74342;SDS011;62767;50.300;8.070;2024-03-17T10:15:20;3.88;;;1.42;;
74342;SDS011;62767;50.300;8.070;2024-03-17T10:17:46;5.18;;;1.60;;
74342;SDS011;62767;50.300;8.070;2024-03-17T10:20:15;3.83;;;1.40;;
74342;SDS011;62767;50.300;8.070;2024-03-17T10:25:31;2.95;;;1.50;;
74342;SDS011;62767;50.300;8.070;2024-03-17T10:27:58;3.22;;;1.67;;
74342;SDS011;62767;50.300;8.070;2024-03-17T10:30:26;3.63;;;1.63;;
74342;SDS011;62767;50.300;8.070;2024-03-17T10:32:58;4.70;;;1.67;;
74342;SDS011;62767;50.300;8.070;2024-03-17T10:35:34;3.00;;;1.38;;
74342;SDS011;62767;50.300;8.070;2024-03-17T10:38:04;2.92;;;1.40;;
74342;SDS011;62767;50.300;8.070;2024-03-17T10:40:31;3.72;;;1.48;;
74342;SDS011;62767;50.300;8.070;2024-03-17T10:42:59;3.85;;;1.50;;
74342;SDS011;62767;50.300;8.070;2024-03-17T10:45:26;3.97;;;2.10;;
74342;SDS011;62767;50.300;8.070;2024-03-17T10:47:55;5.10;;;1.77;;
74342;SDS011;62767;50.300;8.070;2024-03-17T10:50:25;3.08;;;1.52;;
74342;SDS011;62767;50.300;8.070;2024-03-17T10:52:56;4.93;;;1.70;;
74342;SDS011;62767;50.300;8.070;2024-03-17T10:55:27;2.55;;;1.30;;
74342;SDS011;62767;50.300;8.070;2024-03-17T10:57:57;3.03;;;1.40;;
74342;SDS011;62767;50.300;8.070;2024-03-17T11:00:29;3.05;;;1.27;;
74342;SDS011;62767;50.300;8.070;2024-03-17T11:02:57;2.65;;;1.35;;
74342;SDS011;62767;50.300;8.070;2024-03-17T11:05:26;4.00;;;1.60;;
74342;SDS011;62767;50.300;8.070;2024-03-17T11:07:58;5.22;;;1.60;;
74342;SDS011;62767;50.300;8.070;2024-03-17T11:10:31;7.43;;;1.98;;
74342;SDS011;62767;50.300;8.070;2024-03-17T11:13:00;5.70;;;1.50;;
74342;SDS011;62767;50.300;8.070;2024-03-17T11:20:37;3.42;;;1.75;;
74342;SDS011;62767;50.300;8.070;2024-03-17T11:23:04;4.82;;;1.58;;
74342;SDS011;62767;50.300;8.070;2024-03-17T11:28:08;4.85;;;1.50;;
74342;SDS011;62767;50.300;8.070;2024-03-17T11:38:51;3.78;;;1.20;;
74342;SDS011;62767;50.300;8.070;2024-03-17T11:47:00;2.50;;;1.00;;
74342;SDS011;62767;50.300;8.070;2024-03-17T11:49:30;3.75;;;1.10;;
74342;SDS011;62767;50.300;8.070;2024-03-17T11:52:00;3.33;;;1.23;;
74342;SDS011;62767;50.300;8.070;2024-03-17T11:54:32;2.45;;;1.00;;
74342;SDS011;62767;50.300;8.070;2024-03-17T11:57:05;2.85;;;0.90;;
74342;SDS011;62767;50.300;8.070;2024-03-17T11:59:31;1.67;;;0.90;;
74342;SDS011;62767;50.300;8.070;2024-03-17T12:01:57;2.17;;;0.90;;
74342;SDS011;62767;50.300;8.070;2024-03-17T12:04:24;3.15;;;1.35;;
74342;SDS011;62767;50.300;8.070;2024-03-17T12:06:50;2.00;;;0.98;;
74342;SDS011;62767;50.300;8.070;2024-03-17T12:09:20;1.40;;;0.90;;
74342;SDS011;62767;50.300;8.070;2024-03-17T12:11:50;1.10;;;0.70;;
74342;SDS011;62767;50.300;8.070;2024-03-17T12:14:17;3.25;;;0.95;;
74342;SDS011;62767;50.300;8.070;2024-03-17T12:16:48;1.52;;;0.93;;
74342;SDS011;62767;50.300;8.070;2024-03-17T12:19:15;1.95;;;0.90;;
74342;SDS011;62767;50.300;8.070;2024-03-17T12:21:44;2.30;;;1.10;;
74342;SDS011;62767;50.300;8.070;2024-03-17T12:24:15;1.33;;;0.80;;
74342;SDS011;62767;50.300;8.070;2024-03-17T12:31:50;1.40;;;0.80;;
74342;SDS011;62767;50.300;8.070;2024-03-17T12:34:17;1.08;;;0.70;;
74342;SDS011;62767;50.300;8.070;2024-03-17T12:36:44;1.70;;;0.90;;
74342;SDS011;62767;50.300;8.070;2024-03-17T12:39:14;1.15;;;0.63;;
74342;SDS011;62767;50.300;8.070;2024-03-17T12:41:44;0.85;;;0.63;;
74342;SDS011;62767;50.300;8.070;2024-03-17T12:44:29;2.65;;;0.80;;
74342;SDS011;62767;50.300;8.070;2024-03-17T12:46:56;1.70;;;0.77;;
74342;SDS011;62767;50.300;8.070;2024-03-17T12:49:22;1.38;;;0.70;;
74342;SDS011;62767;50.300;8.070;2024-03-17T12:51:50;3.13;;;0.70;;
74342;SDS011;62767;50.300;8.070;2024-03-17T12:54:17;1.65;;;0.65;;
74342;SDS011;62767;50.300;8.070;2024-03-17T12:56:45;1.05;;;0.50;;
74342;SDS011;62767;50.300;8.070;2024-03-17T12:59:41;1.17;;;0.60;;
74342;SDS011;62767;50.300;8.070;2024-03-17T13:02:26;0.50;;;0.50;;
74342;SDS011;62767;50.300;8.070;2024-03-17T13:05:11;1.30;;;0.82;;
74342;SDS011;62767;50.300;8.070;2024-03-17T13:07:40;0.82;;;0.70;;
74342;SDS011;62767;50.300;8.070;2024-03-17T13:10:06;2.17;;;0.80;;
74342;SDS011;62767;50.300;8.070;2024-03-17T13:12:33;3.13;;;0.90;;
74342;SDS011;62767;50.300;8.070;2024-03-17T13:15:00;1.35;;;0.50;;
74342;SDS011;62767;50.300;8.070;2024-03-17T13:17:25;1.55;;;0.80;;
74342;SDS011;62767;50.300;8.070;2024-03-17T13:19:54;1.00;;;0.63;;
74342;SDS011;62767;50.300;8.070;2024-03-17T13:22:19;1.20;;;0.80;;
74342;SDS011;62767;50.300;8.070;2024-03-17T13:24:45;1.45;;;0.70;;
74342;SDS011;62767;50.300;8.070;2024-03-17T13:27:10;1.63;;;0.93;;
74342;SDS011;62767;50.300;8.070;2024-03-17T13:29:36;1.65;;;0.80;;
74342;SDS011;62767;50.300;8.070;2024-03-17T13:32:02;1.42;;;0.63;;
74342;SDS011;62767;50.300;8.070;2024-03-17T13:34:28;0.75;;;0.70;;
74342;SDS011;62767;50.300;8.070;2024-03-17T13:36:54;2.25;;;0.63;;
74342;SDS011;62767;50.300;8.070;2024-03-17T13:39:19;0.93;;;0.60;;
74342;SDS011;62767;50.300;8.070;2024-03-17T13:41:49;0.80;;;0.55;;
74342;SDS011;62767;50.300;8.070;2024-03-17T13:44:18;0.60;;;0.60;;
74342;SDS011;62767;50.300;8.070;2024-03-17T13:46:44;0.60;;;0.60;;
74342;SDS011;62767;50.300;8.070;2024-03-17T13:49:09;2.75;;;0.90;;
74342;SDS011;62767;50.300;8.070;2024-03-17T13:51:36;0.75;;;0.70;;
74342;SDS011;62767;50.300;8.070;2024-03-17T13:54:02;0.70;;;0.70;;
74342;SDS011;62767;50.300;8.070;2024-03-17T13:56:28;0.65;;;0.50;;
74342;SDS011;62767;50.300;8.070;2024-03-17T13:58:53;1.05;;;0.68;;
74342;SDS011;62767;50.300;8.070;2024-03-17T14:01:19;0.77;;;0.70;;
74342;SDS011;62767;50.300;8.070;2024-03-17T14:03:45;0.90;;;0.73;;
74342;SDS011;62767;50.300;8.070;2024-03-17T14:06:11;1.42;;;0.88;;
74342;SDS011;62767;50.300;8.070;2024-03-17T14:08:36;2.20;;;0.68;;
74342;SDS011;62767;50.300;8.070;2024-03-17T14:11:02;0.75;;;0.68;;
74342;SDS011;62767;50.300;8.070;2024-03-17T14:13:29;1.85;;;0.93;;
74342;SDS011;62767;50.300;8.070;2024-03-17T14:15:55;2.45;;;0.70;;
74342;SDS011;62767;50.300;8.070;2024-03-17T14:18:21;0.82;;;0.70;;
74342;SDS011;62767;50.300;8.070;2024-03-17T14:20:47;1.35;;;0.73;;
74342;SDS011;62767;50.300;8.070;2024-03-17T14:23:12;0.93;;;0.50;;
74342;SDS011;62767;50.300;8.070;2024-03-17T14:25:38;1.30;;;0.80;;
74342;SDS011;62767;50.300;8.070;2024-03-17T14:28:04;0.85;;;0.70;;
74342;SDS011;62767;50.300;8.070;2024-03-17T14:30:30;0.70;;;0.50;;
74342;SDS011;62767;50.300;8.070;2024-03-17T14:32:58;1.05;;;0.70;;
74342;SDS011;62767;50.300;8.070;2024-03-17T14:35:24;1.80;;;0.80;;
74342;SDS011;62767;50.300;8.070;2024-03-17T14:37:52;3.25;;;0.80;;
74342;SDS011;62767;50.300;8.070;2024-03-17T14:40:18;2.22;;;0.57;;
74342;SDS011;62767;50.300;8.070;2024-03-17T14:42:52;1.70;;;0.90;;
74342;SDS011;62767;50.300;8.070;2024-03-17T14:45:18;2.70;;;0.88;;
74342;SDS011;62767;50.300;8.070;2024-03-17T14:47:45;1.30;;;0.80;;
74342;SDS011;62767;50.300;8.070;2024-03-17T14:50:11;1.35;;;0.85;;
74342;SDS011;62767;50.300;8.070;2024-03-17T14:52:37;1.52;;;0.90;;
74342;SDS011;62767;50.300;8.070;2024-03-17T14:55:03;1.20;;;0.82;;
74342;SDS011;62767;50.300;8.070;2024-03-17T14:57:30;0.88;;;0.70;;
74342;SDS011;62767;50.300;8.070;2024-03-17T14:59:56;0.90;;;0.70;;
74342;SDS011;62767;50.300;8.070;2024-03-17T15:02:21;0.90;;;0.60;;
74342;SDS011;62767;50.300;8.070;2024-03-17T15:04:49;0.70;;;0.70;;
74342;SDS011;62767;50.300;8.070;2024-03-17T15:07:17;2.45;;;0.90;;
74342;SDS011;62767;50.300;8.070;2024-03-17T15:09:42;0.55;;;0.50;;
74342;SDS011;62767;50.300;8.070;2024-03-17T15:12:08;0.47;;;0.47;;
74342;SDS011;62767;50.300;8.070;2024-03-17T15:14:34;1.55;;;0.60;;
74342;SDS011;62767;50.300;8.070;2024-03-17T15:17:00;1.48;;;0.77;;
74342;SDS011;62767;50.300;8.070;2024-03-17T15:19:25;1.05;;;0.60;;
74342;SDS011;62767;50.300;8.070;2024-03-17T15:21:51;1.83;;;0.50;;
74342;SDS011;62767;50.300;8.070;2024-03-17T15:24:17;0.85;;;0.60;;
74342;SDS011;62767;50.300;8.070;2024-03-17T15:26:43;1.20;;;0.70;;
74342;SDS011;62767;50.300;8.070;2024-03-17T15:29:08;1.27;;;0.60;;
74342;SDS011;62767;50.300;8.070;2024-03-17T15:31:34;1.30;;;0.70;;
74342;SDS011;62767;50.300;8.070;2024-03-17T15:36:26;0.95;;;0.68;;
74342;SDS011;62767;50.300;8.070;2024-03-17T15:38:51;0.85;;;0.65;;
74342;SDS011;62767;50.300;8.070;2024-03-17T15:41:17;0.98;;;0.70;;
74342;SDS011;62767;50.300;8.070;2024-03-17T15:43:43;1.98;;;0.65;;
74342;SDS011;62767;50.300;8.070;2024-03-17T15:46:16;0.68;;;0.60;;